Time;durP1;ratioP1;P1;durP2;ratioP2;P2;SDS_P1;SDS_P2;PMS_P1;PMS_P2;Temp;Humidity;BMP_temperature;BMP_pressure;BME280_temperature;BME280_humidity;BME280_pressure;Samples;Min_cycle;Max_cycle;Signal;HPM_P1;HPM_P2
2022/08/23 00:01:09;;;;;;;6.87;3.10;;;19.90;99.90;;;;;;5010542;28;20442;-49
2022/08/23 00:03:34;;;;;;;7.23;3.20;;;19.90;99.90;;;;;;5022250;28;20818;-49
2022/08/23 00:06:00;;;;;;;5.93;3.17;;;19.90;99.90;;;;;;5024898;28;20441;-49
2022/08/23 00:08:26;;;;;;;5.23;2.80;;;19.80;99.90;;;;;;5055678;28;20233;-49
2022/08/23 00:10:52;;;;;;;4.40;2.77;;;19.80;99.90;;;;;;5029008;28;20278;-49
2022/08/23 00:13:18;;;;;;;4.00;3.10;;;19.70;99.90;;;;;;5032778;28;20167;-49
2022/08/23 00:15:43;;;;;;;6.50;3.10;;;19.80;99.90;;;;;;5024459;28;20187;-49
2022/08/23 00:18:09;;;;;;;3.43;2.87;;;19.80;99.90;;;;;;5014458;28;20552;-48
2022/08/23 00:20:34;;;;;;;5.47;3.20;;;19.70;99.90;;;;;;5018833;28;20287;-49
2022/08/23 00:23:00;;;;;;;5.30;3.30;;;19.70;99.90;;;;;;5032171;28;20241;-49
2022/08/23 00:25:26;;;;;;;4.17;3.07;;;19.80;99.90;;;;;;5010341;28;20218;-49
2022/08/23 00:27:51;;;;;;;6.97;3.07;;;19.80;99.90;;;;;;5021231;28;20210;-49
2022/08/23 00:30:17;;;;;;;6.33;3.10;;;19.80;99.90;;;;;;5013183;28;20179;-49
2022/08/23 00:32:44;;;;;;;6.00;3.40;;;19.80;99.90;;;;;;5010501;28;20196;-48
2022/08/23 00:35:12;;;;;;;5.20;3.50;;;19.80;99.90;;;;;;5009810;28;20457;-49
2022/08/23 00:37:38;;;;;;;4.63;3.27;;;19.70;99.90;;;;;;5010052;28;20430;-49
2022/08/23 00:40:10;;;;;;;4.80;3.37;;;19.60;99.90;;;;;;5013996;28;20497;-49
2022/08/23 00:49:03;;;;;;;7.20;3.50;;;19.60;99.90;;;;;;5010175;28;20465;-49
2022/08/23 00:52:01;;;;;;;4.03;3.37;;;19.60;99.90;;;;;;5013008;28;20435;-49
2022/08/23 00:54:29;;;;;;;4.50;3.23;;;19.50;99.90;;;;;;5007209;28;20457;-48
2022/08/23 00:56:58;;;;;;;5.77;3.33;;;19.50;99.90;;;;;;5008920;28;20453;-49
2022/08/23 00:59:25;;;;;;;5.23;3.63;;;19.40;99.90;;;;;;5008911;28;20441;-49
2022/08/23 01:01:51;;;;;;;5.47;3.50;;;19.50;99.90;;;;;;5010063;28;20515;-49
2022/08/23 01:04:17;;;;;;;7.50;3.40;;;19.50;99.90;;;;;;5017614;28;20433;-49
2022/08/23 01:07:06;;;;;;;5.90;3.20;;;19.50;99.90;;;;;;5010955;28;20864;-49
2022/08/23 01:09:32;;;;;;;6.73;3.60;;;19.50;99.90;;;;;;5015396;28;21179;-49
2022/08/23 01:12:04;;;;;;;6.13;3.53;;;19.50;99.90;;;;;;5027398;28;20437;-49
2022/08/23 01:14:42;;;;;;;6.37;3.23;;;19.50;99.90;;;;;;5028619;28;20592;-48
2022/08/23 01:17:08;;;;;;;7.80;3.50;;;19.50;99.90;;;;;;5030158;28;20567;-48
2022/08/23 01:19:42;;;;;;;4.93;3.20;;;19.40;99.90;;;;;;5031582;28;20492;-49
2022/08/23 01:22:33;;;;;;;5.20;4.20;;;19.50;99.90;;;;;;5030672;28;20238;-49
2022/08/23 01:25:02;;;;;;;6.73;3.40;;;19.50;99.90;;;;;;5012693;28;20450;-49
2022/08/23 01:27:28;;;;;;;5.67;3.40;;;19.50;99.90;;;;;;5017582;28;20959;-49
2022/08/23 01:29:54;;;;;;;6.43;3.50;;;19.40;99.90;;;;;;5031835;28;20930;-48
2022/08/23 01:32:21;;;;;;;7.97;3.43;;;19.40;99.90;;;;;;5015641;28;20458;-49
2022/08/23 01:34:46;;;;;;;6.90;3.23;;;19.40;99.90;;;;;;5013329;28;20492;-49
2022/08/23 01:37:12;;;;;;;6.23;3.30;;;19.40;99.90;;;;;;5011982;28;20481;-49
2022/08/23 01:39:38;;;;;;;5.23;3.50;;;19.30;99.90;;;;;;5008043;28;20188;-49
2022/08/23 01:42:06;;;;;;;5.63;3.73;;;19.30;99.90;;;;;;5007369;28;20445;-49
2022/08/23 01:44:32;;;;;;;9.93;3.90;;;19.30;99.90;;;;;;5008056;28;20312;-49
2022/08/23 01:46:58;;;;;;;6.27;3.60;;;19.30;99.90;;;;;;5008241;28;21203;-49
2022/08/23 01:49:24;;;;;;;4.30;3.80;;;19.30;99.90;;;;;;5009921;28;20450;-49
2022/08/23 01:51:49;;;;;;;6.17;3.73;;;19.30;99.90;;;;;;5008086;28;20199;-49
2022/08/23 01:54:15;;;;;;;5.90;3.67;;;19.20;99.90;;;;;;5007860;28;20195;-49
2022/08/23 01:56:41;;;;;;;10.30;3.90;;;19.20;99.90;;;;;;5008139;28;20199;-49
2022/08/23 01:59:09;;;;;;;4.77;3.60;;;19.20;99.90;;;;;;5017322;28;20187;-49
2022/08/23 02:01:36;;;;;;;6.80;3.70;;;19.20;99.90;;;;;;5012315;28;20426;-49
2022/08/23 02:04:03;;;;;;;7.70;3.73;;;19.20;99.90;;;;;;5028890;28;20476;-49
2022/08/23 02:06:29;;;;;;;6.93;4.03;;;19.10;99.90;;;;;;5044612;28;20468;-49
2022/08/23 02:09:00;;;;;;;4.83;3.60;;;19.10;99.90;;;;;;5011205;28;22437;-49
2022/08/23 02:11:32;;;;;;;4.33;3.10;;;19.20;99.90;;;;;;5014862;28;20443;-49
2022/08/23 02:13:59;;;;;;;3.63;3.33;;;19.20;99.90;;;;;;5016384;28;20740;-49
2022/08/23 02:16:36;;;;;;;11.33;4.00;;;19.20;99.90;;;;;;5027829;28;20466;-49
2022/08/23 02:19:05;;;;;;;9.90;3.83;;;19.10;99.90;;;;;;5018714;28;20481;-49
2022/08/23 02:21:31;;;;;;;7.63;3.63;;;19.10;99.90;;;;;;5015616;28;20457;-49
2022/08/23 02:23:58;;;;;;;7.63;3.80;;;19.10;99.90;;;;;;5023273;28;21024;-49
2022/08/23 02:26:24;;;;;;;11.27;4.00;;;19.10;99.90;;;;;;5024063;28;20190;-49
2022/08/23 02:28:51;;;;;;;5.87;3.90;;;19.20;99.90;;;;;;5030394;28;20831;-49
2022/08/23 02:31:17;;;;;;;4.73;3.60;;;19.10;99.90;;;;;;5019609;28;20199;-49
2022/08/23 02:33:43;;;;;;;6.63;3.97;;;19.10;99.90;;;;;;5018680;28;20461;-49
2022/08/23 02:36:08;;;;;;;4.73;3.70;;;19.00;99.90;;;;;;5029052;28;20653;-49
2022/08/23 02:38:34;;;;;;;4.33;3.83;;;19.00;99.90;;;;;;5020834;28;20187;-49
2022/08/23 02:41:00;;;;;;;5.70;3.57;;;18.90;99.90;;;;;;5020689;28;20527;-49
2022/08/23 02:43:26;;;;;;;5.07;3.90;;;18.90;99.90;;;;;;5021563;28;20318;-49
2022/08/23 02:45:52;;;;;;;13.27;3.80;;;18.90;99.90;;;;;;5011516;28;20184;-49
2022/08/23 02:48:17;;;;;;;6.03;4.03;;;18.90;99.90;;;;;;5025873;28;20480;-49
2022/08/23 02:50:43;;;;;;;4.80;3.90;;;18.90;99.90;;;;;;5026893;28;20645;-49
2022/08/23 02:53:09;;;;;;;6.17;4.20;;;19.00;99.90;;;;;;5020708;28;20184;-49
2022/08/23 02:55:34;;;;;;;5.63;4.10;;;19.00;99.90;;;;;;5016261;28;20593;-49
2022/08/23 02:58:00;;;;;;;5.30;3.90;;;18.90;99.90;;;;;;5026265;28;20214;-49
2022/08/23 03:00:26;;;;;;;5.60;3.80;;;18.90;99.90;;;;;;5017843;28;20266;-49
2022/08/23 03:02:51;;;;;;;6.97;4.57;;;18.80;99.90;;;;;;5018397;28;20220;-49
2022/08/23 03:05:17;;;;;;;5.80;3.80;;;18.90;99.90;;;;;;5030402;28;20199;-49
2022/08/23 03:07:43;;;;;;;6.80;4.17;;;18.80;99.90;;;;;;5031560;28;20214;-49
2022/08/23 03:10:10;;;;;;;4.43;3.73;;;18.80;99.90;;;;;;5016588;28;20176;-49
2022/08/23 03:12:36;;;;;;;6.20;4.90;;;18.70;99.90;;;;;;5032174;28;20441;-49
2022/08/23 03:15:03;;;;;;;8.80;3.73;;;18.70;99.90;;;;;;5014847;28;20422;-49
2022/08/23 03:17:29;;;;;;;7.63;4.50;;;18.70;99.90;;;;;;5014452;28;20442;-49
2022/08/23 03:19:55;;;;;;;8.53;4.37;;;18.70;99.90;;;;;;5020704;28;20434;-49
2022/08/23 03:22:22;;;;;;;6.23;4.20;;;18.80;99.90;;;;;;5032181;28;20226;-49
2022/08/23 03:24:47;;;;;;;5.73;4.27;;;18.80;99.90;;;;;;5024464;28;20732;-49
2022/08/23 03:27:13;;;;;;;7.03;4.30;;;18.80;99.90;;;;;;5023056;28;20512;-49
2022/08/23 03:29:39;;;;;;;10.13;4.10;;;18.80;99.90;;;;;;5013398;28;20236;-49
2022/08/23 03:32:06;;;;;;;5.67;3.97;;;18.70;99.90;;;;;;5013200;28;20462;-49
2022/08/23 03:34:33;;;;;;;8.47;4.70;;;18.70;99.90;;;;;;5009938;28;20644;-49
2022/08/23 03:36:59;;;;;;;7.57;4.47;;;18.70;99.90;;;;;;5033728;28;20410;-49
2022/08/23 03:39:25;;;;;;;10.30;4.80;;;18.70;99.90;;;;;;5029372;28;20472;-49
2022/08/23 03:41:50;;;;;;;5.97;4.10;;;18.60;99.90;;;;;;5017879;28;20496;-49
2022/08/23 03:44:16;;;;;;;4.50;4.10;;;18.60;99.90;;;;;;5032730;28;20267;-49
2022/08/23 03:46:41;;;;;;;6.80;4.60;;;18.60;99.90;;;;;;5025706;28;20608;-49
2022/08/23 03:49:07;;;;;;;7.17;4.57;;;18.60;99.90;;;;;;5024313;28;20176;-49
2022/08/23 03:51:33;;;;;;;7.23;4.80;;;18.60;99.90;;;;;;5013986;28;20960;-49
2022/08/23 03:53:59;;;;;;;7.83;4.97;;;18.50;99.90;;;;;;5016428;28;20694;-49
2022/08/23 03:56:31;;;;;;;7.60;4.33;;;18.60;99.90;;;;;;5032114;28;20434;-49
2022/08/23 03:58:59;;;;;;;5.00;4.50;;;18.60;99.90;;;;;;5016310;28;20427;-49
2022/08/23 04:01:25;;;;;;;6.80;4.10;;;18.70;99.90;;;;;;5030863;28;20494;-49
2022/08/23 04:03:51;;;;;;;7.57;4.73;;;18.60;99.90;;;;;;5031374;28;20484;-49
2022/08/23 04:06:17;;;;;;;7.83;4.80;;;18.60;99.90;;;;;;5030481;28;20179;-49
2022/08/23 04:08:44;;;;;;;7.83;5.20;;;18.50;99.90;;;;;;5018006;28;20237;-50
2022/08/23 04:11:11;;;;;;;4.90;4.50;;;18.40;99.90;;;;;;5033025;28;20990;-49
2022/08/23 04:13:38;;;;;;;6.60;4.80;;;18.50;99.90;;;;;;5021689;28;20835;-49
2022/08/23 04:16:04;;;;;;;7.80;4.97;;;18.50;99.90;;;;;;5021958;28;20473;-49
2022/08/23 04:18:32;;;;;;;7.93;5.23;;;18.40;99.90;;;;;;5029400;28;20520;-49
2022/08/23 04:21:01;;;;;;;6.10;4.50;;;18.50;99.90;;;;;;5022420;28;20448;-49
2022/08/23 04:23:27;;;;;;;8.03;4.60;;;18.50;99.90;;;;;;5027879;28;20856;-49
2022/08/23 04:25:54;;;;;;;6.83;5.03;;;18.40;99.90;;;;;;5022197;28;20480;-49
2022/08/23 04:28:20;;;;;;;7.73;5.13;;;18.40;99.90;;;;;;5013682;28;20203;-49
2022/08/23 04:30:46;;;;;;;7.40;5.07;;;18.40;99.90;;;;;;5051891;28;20480;-49
2022/08/23 04:33:12;;;;;;;5.97;4.17;;;18.40;99.90;;;;;;5028210;28;20460;-49
2022/08/23 04:35:40;;;;;;;7.40;4.60;;;18.40;99.90;;;;;;5031919;28;20440;-50
2022/08/23 04:38:06;;;;;;;6.03;4.43;;;18.40;99.90;;;;;;5027618;28;20269;-49
2022/08/23 04:43:16;;;;;;;4.83;4.43;;;18.40;99.90;;;;;;5035956;28;20861;-49
2022/08/23 04:45:41;;;;;;;8.30;5.47;;;18.50;99.90;;;;;;5015517;28;20534;-49
2022/08/23 04:48:08;;;;;;;10.63;5.40;;;18.40;99.90;;;;;;5020703;28;20729;-49
2022/08/23 04:50:35;;;;;;;6.53;5.17;;;18.50;99.90;;;;;;5028234;28;20182;-49
2022/08/23 04:53:01;;;;;;;6.50;4.90;;;18.40;99.90;;;;;;5028404;28;20446;-49
2022/08/23 04:55:27;;;;;;;8.83;5.20;;;18.40;99.90;;;;;;5029145;28;20444;-49
2022/08/23 04:57:53;;;;;;;7.40;5.40;;;18.40;99.90;;;;;;5026991;28;20551;-49
2022/08/23 05:00:19;;;;;;;9.80;5.43;;;18.40;99.90;;;;;;5031193;28;20446;-49
2022/08/23 05:02:45;;;;;;;9.23;5.20;;;18.40;99.90;;;;;;5025637;28;20442;-49
2022/08/23 05:05:11;;;;;;;9.10;5.80;;;18.40;99.90;;;;;;5024263;28;20437;-49
2022/08/23 05:07:38;;;;;;;6.33;5.20;;;18.40;99.90;;;;;;5031146;28;20926;-49
2022/08/23 05:10:06;;;;;;;15.63;5.90;;;18.50;99.90;;;;;;5028529;28;20450;-49
2022/08/23 05:12:32;;;;;;;8.77;5.30;;;18.40;99.90;;;;;;5019910;28;20437;-49
2022/08/23 05:14:58;;;;;;;8.53;5.47;;;18.50;99.90;;;;;;5025585;28;20433;-49
2022/08/23 05:17:23;;;;;;;6.80;4.80;;;18.50;99.90;;;;;;5025789;28;20517;-49
2022/08/23 05:19:49;;;;;;;6.70;5.60;;;18.60;99.90;;;;;;5029847;28;20179;-49
2022/08/23 05:22:15;;;;;;;12.77;5.67;;;18.60;99.90;;;;;;5023567;28;20241;-49
2022/08/23 05:24:40;;;;;;;9.23;5.53;;;18.60;99.90;;;;;;5030650;28;20197;-49
2022/08/23 05:27:06;;;;;;;11.90;6.00;;;18.60;99.90;;;;;;5016215;28;20215;-49
2022/08/23 05:29:31;;;;;;;10.83;5.60;;;18.70;99.90;;;;;;5033348;28;20189;-49
2022/08/23 05:31:57;;;;;;;10.30;5.33;;;18.70;99.90;;;;;;5019253;28;20218;-49
2022/08/23 05:34:23;;;;;;;5.70;5.00;;;18.70;99.90;;;;;;5026074;28;20195;-49
2022/08/23 05:36:49;;;;;;;5.37;4.57;;;18.80;99.90;;;;;;5030747;28;20187;-49
2022/08/23 05:39:15;;;;;;;7.07;5.10;;;18.80;99.90;;;;;;5028215;28;20536;-49
2022/08/23 05:41:41;;;;;;;8.47;5.50;;;18.90;99.90;;;;;;5027635;28;20286;-53
2022/08/23 05:44:09;;;;;;;7.30;4.97;;;18.90;99.90;;;;;;5025251;28;20637;-49
2022/08/23 05:46:35;;;;;;;9.10;5.13;;;19.00;99.90;;;;;;5017580;28;20446;-49
2022/08/23 05:49:01;;;;;;;7.80;5.33;;;19.10;99.90;;;;;;5025380;28;20433;-50
2022/08/23 05:51:30;;;;;;;6.40;4.87;;;19.20;99.90;;;;;;5030988;28;20433;-49
2022/08/23 05:53:59;;;;;;;7.97;5.27;;;19.20;99.90;;;;;;5024243;28;20188;-50
2022/08/23 05:56:28;;;;;;;7.00;5.13;;;19.20;99.90;;;;;;5012386;28;20877;-49
2022/08/23 05:58:57;;;;;;;10.50;5.00;;;19.30;99.90;;;;;;5030503;28;20927;-49
2022/08/23 06:01:23;;;;;;;7.97;5.23;;;19.30;99.90;;;;;;5030005;28;20430;-49
2022/08/23 06:03:50;;;;;;;8.77;5.30;;;19.40;99.90;;;;;;5019848;28;20445;-49
2022/08/23 06:06:16;;;;;;;6.30;5.20;;;19.40;99.90;;;;;;5028197;28;20412;-49
2022/08/23 06:08:47;;;;;;;13.23;5.57;;;19.50;99.90;;;;;;5025444;28;20956;-49
2022/08/23 06:11:17;;;;;;;9.50;5.70;;;19.60;99.90;;;;;;5025859;28;20934;-49
2022/08/23 06:14:03;;;;;;;9.60;5.90;;;19.70;99.90;;;;;;5025533;28;20540;-49
2022/08/23 06:16:39;;;;;;;7.03;4.90;;;19.80;99.90;;;;;;5024504;28;20439;-49
2022/08/23 06:19:06;;;;;;;9.27;5.80;;;19.90;99.90;;;;;;5021014;28;20452;-49
2022/08/23 06:21:32;;;;;;;8.97;5.47;;;20.00;99.90;;;;;;5028486;28;20430;-49
2022/08/23 06:23:59;;;;;;;6.90;5.33;;;20.30;99.90;;;;;;5029752;28;20481;-51
2022/08/23 06:26:30;;;;;;;17.00;5.90;;;20.50;99.90;;;;;;5030868;28;20552;-49
2022/08/23 06:28:57;;;;;;;14.50;4.80;;;20.60;99.90;;;;;;5029646;28;20477;-49
2022/08/23 06:34:11;;;;;;;7.27;5.10;;;20.90;99.90;;;;;;5028175;28;20939;-49
2022/08/23 06:36:37;;;;;;;14.63;5.90;;;21.00;99.90;;;;;;5022464;28;20433;-49
2022/08/23 06:39:08;;;;;;;9.30;5.30;;;21.20;99.90;;;;;;5029162;28;20433;-49
2022/08/23 06:41:35;;;;;;;14.93;5.20;;;21.40;99.90;;;;;;5032498;28;20595;-49
2022/08/23 06:44:00;;;;;;;7.90;5.40;;;21.60;99.90;;;;;;5033048;28;20433;-49
2022/08/23 06:46:27;;;;;;;9.23;4.90;;;22.00;99.90;;;;;;5023757;28;20430;-49
2022/08/23 06:48:53;;;;;;;7.77;4.90;;;22.30;99.90;;;;;;5022801;28;20238;-49
2022/08/23 06:51:28;;;;;;;10.10;4.97;;;22.70;99.90;;;;;;5030899;28;21613;-48
2022/08/23 06:53:56;;;;;;;8.77;4.70;;;22.90;99.90;;;;;;5034376;28;20879;-49
2022/08/23 06:56:24;;;;;;;7.07;4.83;;;22.80;99.90;;;;;;5033102;28;20433;-49
2022/08/23 06:58:51;;;;;;;8.87;4.87;;;22.80;99.90;;;;;;5031437;28;20441;-48
2022/08/23 07:01:41;;;;;;;7.87;4.47;;;23.00;99.90;;;;;;5033404;28;20433;-49
2022/08/23 07:04:09;;;;;;;7.77;4.37;;;23.10;99.90;;;;;;5033738;28;20425;-48
2022/08/23 07:06:36;;;;;;;8.77;4.33;;;23.30;99.90;;;;;;5015979;28;20457;-49
2022/08/23 07:09:04;;;;;;;11.23;4.23;;;23.50;99.90;;;;;;5032540;28;20499;-49
2022/08/23 07:11:31;;;;;;;7.07;4.77;;;23.70;99.90;;;;;;5031284;28;20441;-49
2022/08/23 07:13:59;;;;;;;6.27;4.40;;;23.80;99.90;;;;;;5031779;28;20433;-49
2022/08/23 07:16:38;;;;;;;6.57;3.60;;;24.00;99.90;;;;;;5035334;28;20406;-49
2022/08/23 07:19:06;;;;;;;6.30;4.23;;;24.10;99.90;;;;;;5047944;28;20453;-48
2022/08/23 07:21:32;;;;;;;9.60;4.00;;;24.30;99.90;;;;;;5030992;28;20433;-49
2022/08/23 07:23:59;;;;;;;5.70;3.83;;;24.40;99.90;;;;;;5031554;28;21063;-49
2022/08/23 07:26:25;;;;;;;5.33;4.10;;;24.70;99.90;;;;;;5047440;28;20442;-49
2022/08/23 07:28:51;;;;;;;7.77;4.00;;;24.80;99.90;;;;;;5030559;28;20461;-49
2022/08/23 07:31:26;;;;;;;10.87;4.07;;;25.00;99.90;;;;;;5033129;28;20763;-49
2022/08/23 07:33:57;;;;;;;7.00;4.27;;;25.30;99.90;;;;;;5033733;28;20179;-49
2022/08/23 07:36:25;;;;;;;4.27;3.87;;;25.50;99.90;;;;;;5031956;28;21159;-49
2022/08/23 07:38:52;;;;;;;5.40;4.13;;;25.60;99.90;;;;;;5032377;28;20425;-49
2022/08/23 07:41:19;;;;;;;9.87;4.23;;;25.60;99.90;;;;;;5031067;28;20453;-48
2022/08/23 07:43:45;;;;;;;9.17;4.07;;;25.80;99.90;;;;;;5033293;28;20521;-48
2022/08/23 07:46:11;;;;;;;11.20;4.30;;;25.90;99.90;;;;;;5033170;28;20414;-48
2022/08/23 07:48:38;;;;;;;4.90;3.87;;;26.00;99.90;;;;;;5033047;28;21323;-49
2022/08/23 07:51:06;;;;;;;6.37;4.13;;;26.20;99.90;;;;;;5031341;28;20532;-49
2022/08/23 07:53:32;;;;;;;11.87;3.97;;;26.40;99.90;;;;;;5033337;28;20507;-48
2022/08/23 07:55:59;;;;;;;5.30;3.50;;;26.70;99.90;;;;;;5032856;28;20425;-49
2022/08/23 07:58:25;;;;;;;7.83;4.50;;;26.90;99.90;;;;;;5032527;28;20797;-49
2022/08/23 08:00:51;;;;;;;8.20;3.40;;;27.10;99.90;;;;;;5031624;28;20520;-49
2022/08/23 08:03:18;;;;;;;9.10;3.50;;;27.20;99.90;;;;;;5032159;28;20781;-50
2022/08/23 08:05:44;;;;;;;5.70;3.43;;;27.30;99.90;;;;;;5030804;28;21028;-49
2022/08/23 08:08:10;;;;;;;8.23;3.13;;;27.40;99.90;;;;;;5031097;28;20615;-49
2022/08/23 08:10:40;;;;;;;9.90;3.73;;;27.60;99.90;;;;;;5031553;28;20445;-49
2022/08/23 08:13:07;;;;;;;3.63;3.00;;;27.60;99.90;;;;;;5032371;28;20513;-49
2022/08/23 08:15:34;;;;;;;7.17;3.23;;;27.80;99.90;;;;;;5031252;28;20433;-49
2022/08/23 08:18:00;;;;;;;5.80;3.20;;;28.10;99.90;;;;;;5029521;28;20935;-49
2022/08/23 08:20:27;;;;;;;6.10;3.17;;;28.00;99.90;;;;;;5031692;28;20449;-49
2022/08/23 08:22:53;;;;;;;4.40;2.77;;;28.10;99.90;;;;;;5012530;28;20478;-49
2022/08/23 08:25:19;;;;;;;5.80;3.60;;;28.10;99.90;;;;;;5017290;28;20464;-49
2022/08/23 08:27:45;;;;;;;10.97;4.23;;;28.10;99.90;;;;;;5032340;28;20457;-49
2022/08/23 08:30:11;;;;;;;7.27;2.70;;;28.20;99.90;;;;;;5032424;28;20443;-49
2022/08/23 08:32:37;;;;;;;5.23;3.80;;;28.50;99.90;;;;;;5030605;28;20666;-49
2022/08/23 08:35:04;;;;;;;12.17;3.40;;;28.80;99.90;;;;;;5031783;28;20414;-49
2022/08/23 08:37:30;;;;;;;9.30;2.80;;;28.80;99.90;;;;;;5028795;28;20795;-49
2022/08/23 08:39:57;;;;;;;4.03;2.87;;;29.00;99.90;;;;;;5030579;28;20945;-49
2022/08/23 08:42:41;;;;;;;5.40;2.87;;;29.00;99.90;;;;;;5011171;28;20434;-49
2022/08/23 08:45:14;;;;;;;5.97;2.50;;;29.00;99.90;;;;;;5012519;28;20418;-50
2022/08/23 08:47:49;;;;;;;5.97;2.50;;;29.20;99.90;;;;;;5027323;28;20515;-49
2022/08/23 08:50:23;;;;;;;4.00;3.10;;;29.40;99.90;;;;;;5022080;28;20563;-49
2022/08/23 08:53:00;;;;;;;5.80;2.60;;;29.50;99.90;;;;;;5030385;28;20434;-49
2022/08/23 08:55:35;;;;;;;6.17;2.57;;;29.50;99.90;;;;;;5012058;28;20798;-49
2022/08/23 08:58:05;;;;;;;4.37;2.67;;;29.50;99.90;;;;;;5012478;28;20733;-49
2022/08/23 09:00:36;;;;;;;6.10;2.80;;;29.50;99.90;;;;;;5012145;28;20486;-49
2022/08/23 09:03:09;;;;;;;8.50;3.20;;;29.80;99.90;;;;;;5011568;28;20386;-49
2022/08/23 09:05:38;;;;;;;3.53;2.50;;;29.60;99.90;;;;;;5012049;28;20415;-49
2022/08/23 09:08:10;;;;;;;3.70;2.73;;;29.80;99.90;;;;;;5011929;28;20454;-49
2022/08/23 09:10:45;;;;;;;6.67;2.70;;;29.90;99.90;;;;;;5012017;28;20490;-49
2022/08/23 09:13:14;;;;;;;4.73;2.70;;;29.80;99.90;;;;;;5011950;28;20415;-49
2022/08/23 09:16:15;;;;;;;6.67;2.87;;;29.70;99.90;;;;;;5012032;28;20794;-49
2022/08/23 09:18:41;;;;;;;4.23;2.63;;;29.70;99.90;;;;;;5012730;28;20625;-49
2022/08/23 09:21:08;;;;;;;5.27;3.03;;;29.70;99.90;;;;;;5028440;28;20536;-49
2022/08/23 09:23:43;;;;;;;4.30;2.90;;;29.70;99.90;;;;;;5031421;28;20718;-49
2022/08/23 09:26:29;;;;;;;3.03;2.73;;;29.60;99.90;;;;;;5031612;28;20524;-48
2022/08/23 09:29:03;;;;;;;5.03;2.80;;;29.40;99.90;;;;;;5031325;28;20464;-49
2022/08/23 09:31:43;;;;;;;5.13;2.60;;;29.40;99.90;;;;;;5031178;28;20425;-49
2022/08/23 09:34:15;;;;;;;2.90;2.63;;;29.40;99.90;;;;;;5031364;28;20398;-49
2022/08/23 09:36:41;;;;;;;5.63;3.03;;;29.30;99.90;;;;;;5031216;28;20757;-49
2022/08/23 09:39:44;;;;;;;4.00;2.60;;;29.30;99.90;;;;;;5031194;28;20414;-49
2022/08/23 09:42:28;;;;;;;3.60;2.70;;;29.10;99.90;;;;;;5048421;28;20185;-49
2022/08/23 09:44:55;;;;;;;5.10;3.03;;;28.90;99.90;;;;;;5032446;28;20440;-49
2022/08/23 09:47:31;;;;;;;4.90;2.70;;;28.40;99.90;;;;;;5030969;28;20533;-49
2022/08/23 09:50:16;;;;;;;4.90;2.63;;;28.20;99.90;;;;;;5017672;28;20524;-48
2022/08/23 09:52:43;;;;;;;3.53;2.80;;;28.10;99.90;;;;;;5011322;28;20403;-48
2022/08/23 09:55:27;;;;;;;4.43;2.67;;;27.90;99.90;;;;;;5011162;28;20465;-48
2022/08/23 09:57:53;;;;;;;5.50;2.53;;;27.60;99.90;;;;;;5011312;28;20430;-49
2022/08/23 10:00:28;;;;;;;3.80;2.40;;;27.50;99.90;;;;;;5011414;28;20426;-49
2022/08/23 10:03:14;;;;;;;5.27;2.57;;;27.50;99.90;;;;;;5027578;28;20186;-48
2022/08/23 10:05:40;;;;;;;5.10;2.77;;;27.60;99.90;;;;;;5030553;28;20487;-48
2022/08/23 10:08:06;;;;;;;4.43;2.40;;;27.40;99.90;;;;;;5030509;28;20793;-49
2022/08/23 10:10:46;;;;;;;7.00;2.57;;;27.60;99.90;;;;;;5030619;28;20421;-49
2022/08/23 10:13:12;;;;;;;3.90;2.40;;;27.90;99.90;;;;;;5031784;28;20189;-49
2022/08/23 10:15:38;;;;;;;3.30;2.50;;;28.30;99.90;;;;;;5030891;28;21105;-49
2022/08/23 10:18:15;;;;;;;5.57;3.00;;;28.60;99.90;;;;;;5029505;28;20472;-49
2022/08/23 10:20:51;;;;;;;3.10;2.53;;;28.90;99.90;;;;;;5029823;28;20202;-49
2022/08/23 10:23:42;;;;;;;2.90;2.57;;;29.00;99.90;;;;;;5030337;28;20948;-49
2022/08/23 10:26:20;;;;;;;8.23;2.77;;;29.40;99.90;;;;;;5030663;28;20496;-49
2022/08/23 10:31:50;;;;;;;3.70;2.47;;;29.90;99.90;;;;;;5030428;28;20432;-49
2022/08/23 10:34:34;;;;;;;3.20;2.20;;;30.50;99.90;;;;;;5029965;28;21255;-49
2022/08/23 10:37:17;;;;;;;8.10;2.60;;;30.80;99.90;;;;;;5030407;28;20493;-49
2022/08/23 10:40:11;;;;;;;4.57;2.20;;;30.70;99.90;;;;;;5030341;28;20405;-49
2022/08/23 10:43:02;;;;;;;3.00;2.63;;;31.20;99.90;;;;;;5039072;28;20479;-49
2022/08/23 10:45:32;;;;;;;4.33;2.23;;;31.80;99.90;;;;;;5030296;28;20843;-49
2022/08/23 10:48:28;;;;;;;9.10;2.50;;;32.20;99.90;;;;;;5028514;28;20549;-50
2022/08/23 10:51:14;;;;;;;6.20;2.37;;;32.50;99.90;;;;;;5010462;28;20473;-49
2022/08/23 10:53:50;;;;;;;5.33;2.27;;;32.80;99.90;;;;;;5010583;28;20427;-50
2022/08/23 10:56:20;;;;;;;4.53;2.00;;;33.30;99.90;;;;;;5020047;28;20449;-50
2022/08/23 10:58:55;;;;;;;2.70;2.00;;;33.50;99.90;;;;;;5030193;28;20456;-50
2022/08/23 11:01:47;;;;;;;1.90;1.80;;;33.70;99.90;;;;;;5030324;28;20493;-50
2022/08/23 11:04:33;;;;;;;9.33;2.67;;;33.40;99.90;;;;;;5030031;28;20410;-49
2022/08/23 11:07:13;;;;;;;4.23;2.20;;;33.00;99.90;;;;;;5030201;28;20401;-49
2022/08/23 11:09:49;;;;;;;4.20;2.30;;;33.00;99.90;;;;;;5029913;28;20413;-50
2022/08/23 11:12:21;;;;;;;3.23;1.90;;;33.50;99.90;;;;;;5030208;28;20441;-50
2022/08/23 11:15:02;;;;;;;5.07;2.03;;;34.20;99.90;;;;;;5030065;28;20498;-50
2022/08/23 11:18:03;;;;;;;3.40;1.77;;;34.40;99.90;;;;;;5029758;28;20487;-50
2022/08/23 11:20:47;;;;;;;4.00;2.30;;;34.40;99.90;;;;;;5029879;28;20538;-50
2022/08/23 11:23:33;;;;;;;4.57;1.90;;;34.20;99.90;;;;;;5029894;28;20472;-50
2022/08/23 11:26:00;;;;;;;5.20;2.10;;;34.30;99.90;;;;;;5031052;28;20979;-50
2022/08/23 11:28:25;;;;;;;4.63;1.70;;;34.60;99.90;;;;;;5031888;28;20963;-50
2022/08/23 11:31:07;;;;;;;3.27;1.77;;;35.00;99.90;;;;;;5031656;28;20421;-50
2022/08/23 11:33:32;;;;;;;4.80;2.30;;;35.10;99.90;;;;;;5020761;28;20182;-50
2022/08/23 11:36:07;;;;;;;2.77;2.00;;;35.10;99.90;;;;;;5033325;28;20417;-50
2022/08/23 11:38:48;;;;;;;5.97;1.90;;;34.70;99.90;;;;;;5033224;28;20232;-50
2022/08/23 11:41:32;;;;;;;3.40;1.70;;;34.60;99.90;;;;;;5031768;28;20437;-50
2022/08/23 11:44:02;;;;;;;4.30;2.20;;;34.80;99.90;;;;;;5033135;28;20471;-50
2022/08/23 11:46:31;;;;;;;3.00;2.00;;;35.00;99.90;;;;;;5028296;28;21002;-50
2022/08/23 11:49:00;;;;;;;4.77;1.77;;;35.20;99.90;;;;;;5032155;28;20500;-50
2022/08/23 11:51:41;;;;;;;5.43;2.83;;;34.80;99.90;;;;;;5031649;28;20503;-49
2022/08/23 11:54:27;;;;;;;6.37;2.50;;;34.90;99.90;;;;;;5031396;28;20503;-50
2022/08/23 11:57:15;;;;;;;5.00;1.90;;;35.20;99.90;;;;;;5031115;28;20442;-50
2022/08/23 12:00:05;;;;;;;3.63;1.93;;;35.40;99.90;;;;;;5032496;28;20426;-50
2022/08/23 12:03:11;;;;;;;3.30;1.60;;;35.80;99.90;;;;;;5032749;28;20433;-50
2022/08/23 12:05:37;;;;;;;2.93;1.33;;;35.30;99.90;;;;;;5017574;28;20842;-49
2022/08/23 12:08:03;;;;;;;3.23;1.80;;;34.80;99.90;;;;;;5032886;28;20465;-50
2022/08/23 12:10:40;;;;;;;3.63;1.87;;;34.50;99.90;;;;;;5032628;28;20167;-50
2022/08/23 12:13:18;;;;;;;2.83;1.60;;;35.00;99.90;;;;;;5030386;28;20700;-50
2022/08/23 12:16:05;;;;;;;4.13;1.73;;;35.10;99.90;;;;;;5015009;28;20493;-50
2022/08/23 12:18:57;;;;;;;2.03;1.50;;;35.40;99.90;;;;;;5032827;28;21073;-50
2022/08/23 12:21:45;;;;;;;5.17;1.80;;;35.60;99.90;;;;;;5031400;28;20920;-50
2022/08/23 12:24:24;;;;;;;2.00;1.30;;;35.80;99.90;;;;;;5022953;28;20537;-50
2022/08/23 12:26:59;;;;;;;3.73;1.60;;;35.70;99.90;;;;;;5022193;28;20436;-50
2022/08/23 12:29:29;;;;;;;3.70;1.30;;;35.60;99.90;;;;;;5032299;28;20413;-50
2022/08/23 12:32:10;;;;;;;5.80;1.50;;;35.90;99.90;;;;;;5031538;28;20430;-50
2022/08/23 12:35:01;;;;;;;1.97;1.40;;;36.10;99.90;;;;;;5030434;28;20440;-50
2022/08/23 12:37:55;;;;;;;4.83;2.10;;;36.30;99.90;;;;;;5031468;28;20430;-51
2022/08/23 12:40:30;;;;;;;2.60;1.80;;;36.50;99.90;;;;;;5036987;28;20417;-50
2022/08/23 12:43:15;;;;;;;2.83;1.80;;;36.50;99.90;;;;;;5029829;28;20477;-50
2022/08/23 12:45:44;;;;;;;9.50;1.90;;;36.20;99.90;;;;;;5012231;28;20414;-50
2022/08/23 12:48:19;;;;;;;2.13;1.50;;;36.10;99.90;;;;;;5012125;28;20468;-50
2022/08/23 12:50:52;;;;;;;5.57;1.83;;;36.40;99.90;;;;;;5012226;28;20407;-50
2022/08/23 12:53:33;;;;;;;2.10;1.40;;;36.40;99.90;;;;;;5012540;28;20403;-50
2022/08/23 12:56:16;;;;;;;4.30;1.73;;;36.50;99.90;;;;;;5029078;28;20472;-50
2022/08/23 12:58:47;;;;;;;2.87;1.67;;;36.40;99.90;;;;;;5031639;28;21057;-50
2022/08/23 13:01:29;;;;;;;4.77;1.53;;;36.50;99.90;;;;;;5030010;28;20446;-50
2022/08/23 13:04:05;;;;;;;3.10;1.73;;;36.50;99.90;;;;;;5017023;28;20794;-50
2022/08/23 13:06:35;;;;;;;2.27;1.37;;;36.60;99.90;;;;;;5031406;28;20911;-49
2022/08/23 13:09:24;;;;;;;1.80;1.70;;;36.20;99.90;;;;;;5015222;28;20798;-50
2022/08/23 13:11:51;;;;;;;3.73;1.60;;;36.00;99.90;;;;;;5011345;28;20433;-50
2022/08/23 13:14:47;;;;;;;6.10;1.77;;;36.00;99.90;;;;;;5019240;28;20532;-50
2022/08/23 13:17:20;;;;;;;3.23;1.60;;;35.80;99.90;;;;;;5031003;28;20437;-50
2022/08/23 13:19:52;;;;;;;4.93;1.80;;;35.80;99.90;;;;;;5031519;28;20517;-50